Portada
METAR-TAF:

METAR-TAF

Aeroports :

Montego Bay, Jamaica

latitud: 18-30N, longitud: 077-55W, altitud: 1 m

Observació

L'informe es va fer fa 51 minuts, a les 09:00 UTC
Vent 1 kt amb direcció variable
Temperatura 26°C
Humitat 89%
Pressió 1011 hPa
Visibilitat 10 km o més
Escasses núvols a una alçada de 2200 ft

METAR: MKJS 300900Z VRB01KT 9999 FEW022 26/24 Q1011

Hora: 04:51 (09:51 UTC)

Pronòstic

L'informe es va fer fa 4 hores i 36 minuts, a les 05:15 UTC
Pronòstic vàlid del 30 a les 06 UTC al 31 a les 06 UTC
Vent 5 kt del Sud-Est
Visibilitat 10 km o més
Escasses núvols a una alçada de 2200 ft
Evolucionant progressivament
l' 30 a les 14 UTC al 30 a les 16 UTC
Vent 15 kt del Est/Nord-Est
Temporalment
l' 30 a les 19 UTC al 30 a les 23 UTC
Visibilitat: 4000 m
Cel ennuvolat a una alçada de 1600 ft
Cel ennuvolat a una alçada de 1800 ft, Cumulonimbus.
tempesta, pluja

TAF: MKJS 300515Z 3006/3106 14005KT 9999 FEW022 BECMG 3014/3016 07015KT TEMPO 3019/3023 4000 TSRA BKN016 BKN018CB

Observacions i pronòstics meteorològics de més de 4000 aeroports (METAR i TAF).

Les estacions disponibles són els punts grocs i vermells al mapa.

Posi el ratolí al punt desitjat per veure el nom de l'estació.

Feu clic per veure les observacions i els pronòstics meteorològics.

Per canviar el mapa: feu clic els botons verds amb una creu de color negre per apropar; al botó verd amb un guió per allunyar la imatge; o en les fletxes verdes per a mapes adjacents.


METAR-TAF: